createdAt,value
2023-11-07T00:05:25.827Z,17.8
2023-11-07T00:11:31.755Z,17.8
2023-11-07T00:17:38.194Z,17.7
2023-11-07T00:23:44.137Z,17.7
2023-11-07T00:29:49.993Z,17.7
2023-11-07T00:35:56.315Z,17.7
2023-11-07T00:42:01.953Z,17.7
2023-11-07T00:48:08.142Z,17.7
2023-11-07T00:54:14.675Z,17.7
2023-11-07T01:00:20.656Z,17.7
2023-11-07T01:06:26.787Z,17.7
2023-11-07T01:12:32.813Z,17.7
2023-11-07T01:18:38.679Z,17.7
2023-11-07T01:24:44.626Z,17.6
2023-11-07T01:30:50.565Z,17.6
2023-11-07T01:36:56.357Z,17.6
2023-11-07T01:43:02.518Z,17.6
2023-11-07T01:49:08.590Z,17.6
2023-11-07T01:55:13.741Z,17.6
2023-11-07T02:01:19.520Z,17.6
2023-11-07T02:07:25.496Z,17.6
2023-11-07T02:13:31.281Z,17.6
2023-11-07T02:19:37.272Z,17.5
2023-11-07T02:25:43.400Z,17.5
2023-11-07T02:31:49.592Z,17.5
2023-11-07T02:37:55.757Z,17.5
2023-11-07T02:44:01.947Z,17.5
2023-11-07T02:50:07.738Z,17.5
2023-11-07T02:56:13.710Z,17.5
2023-11-07T03:02:19.887Z,17.5
2023-11-07T03:08:25.529Z,17.5
2023-11-07T03:14:31.333Z,17.5
2023-11-07T03:20:37.320Z,17.5
2023-11-07T03:26:43.095Z,17.4
2023-11-07T03:32:48.308Z,17.4
2023-11-07T03:38:54.478Z,17.4
2023-11-07T03:45:00.267Z,17.4
2023-11-07T03:51:06.566Z,17.4
2023-11-07T03:57:12.352Z,17.4
2023-11-07T04:03:17.775Z,17.4
2023-11-07T04:09:23.259Z,17.4
2023-11-07T04:15:29.232Z,17.4
2023-11-07T04:21:35.029Z,17.4
2023-11-07T04:27:41.221Z,17.3
2023-11-07T04:33:47.272Z,17.3
2023-11-07T04:39:53.437Z,17.3
2023-11-07T04:45:59.221Z,17.3
2023-11-07T04:52:05.146Z,17.3
2023-11-07T04:58:11.338Z,17.3
2023-11-07T05:04:16.992Z,17.3
2023-11-07T05:10:23.718Z,17.3
2023-11-07T05:16:29.908Z,17.3
2023-11-07T05:22:35.722Z,17.3
2023-11-07T05:28:41.648Z,17.3
2023-11-07T05:34:47.227Z,17.3
2023-11-07T05:40:53.220Z,17.5
2023-11-07T05:46:59.396Z,17.6
2023-11-07T05:53:05.396Z,17.6
2023-11-07T05:59:11.228Z,17.6
2023-11-07T06:05:17.434Z,17.7
2023-11-07T06:11:23.532Z,17.7
2023-11-07T06:17:29.186Z,17.7
2023-11-07T06:23:35.551Z,17.7
2023-11-07T06:29:40.933Z,17.7
2023-11-07T06:35:47.128Z,17.8
2023-11-07T06:41:53.866Z,17.8
2023-11-07T06:47:59.781Z,17.8
2023-11-07T06:54:06.063Z,17.9
2023-11-07T07:00:12.680Z,17.9
2023-11-07T07:06:18.882Z,17.9
2023-11-07T07:12:25.211Z,17.9
2023-11-07T07:18:31.588Z,17.9
2023-11-07T07:24:37.447Z,17.9
2023-11-07T07:30:43.422Z,18
2023-11-07T07:36:49.548Z,18
2023-11-07T07:42:55.730Z,18
2023-11-07T07:49:04.243Z,18
2023-11-07T07:55:13.503Z,18
2023-11-07T08:01:36.615Z,18
2023-11-07T08:07:42.807Z,18
2023-11-07T08:13:48.388Z,18
2023-11-07T08:19:54.989Z,18
2023-11-07T08:26:01.371Z,18
2023-11-07T08:32:07.557Z,18
2023-11-07T08:38:13.341Z,18
2023-11-07T08:44:19.753Z,18
2023-11-07T08:50:25.745Z,18
2023-11-07T08:56:31.923Z,18
2023-11-07T09:02:38.161Z,18
2023-11-07T09:08:44.704Z,18
2023-11-07T09:14:50.968Z,18.1
2023-11-07T09:20:56.884Z,18.1
2023-11-07T09:27:03.062Z,18
2023-11-07T09:33:09.707Z,18.1
2023-11-07T09:39:16.584Z,18.1
2023-11-07T09:45:22.567Z,18.1
2023-11-07T09:51:28.470Z,18.1
2023-11-07T09:57:34.181Z,18.1
2023-11-07T10:03:40.506Z,18.1
2023-11-07T10:09:46.468Z,18.1
2023-11-07T10:15:52.872Z,18.2
2023-11-07T10:22:04.072Z,18.2
2023-11-07T10:28:10.752Z,18.2
2023-11-07T10:34:22.181Z,18.2
2023-11-07T10:40:28.221Z,18.2
2023-11-07T10:46:34.008Z,18.2
2023-11-07T10:52:40.144Z,18.2
2023-11-07T10:58:46.093Z,18.2
2023-11-07T11:04:52.113Z,18.2
2023-11-07T11:10:58.289Z,18.1
2023-11-07T11:17:04.270Z,18.1
2023-11-07T11:23:10.261Z,18.2
2023-11-07T11:29:16.233Z,18.2
2023-11-07T11:35:22.240Z,18.3
2023-11-07T11:41:28.409Z,18.3
2023-11-07T11:47:34.237Z,18.2
2023-11-07T11:53:40.376Z,18.3
2023-11-07T11:59:46.969Z,18.2
2023-11-07T12:05:53.221Z,18.3
2023-11-07T12:11:59.149Z,18.3
2023-11-07T12:18:05.795Z,18.3
2023-11-07T12:24:12.142Z,18.3
2023-11-07T12:30:18.030Z,18.4
2023-11-07T12:36:24.326Z,18.4
2023-11-07T12:42:30.470Z,18.4
2023-11-07T12:48:36.402Z,18.4
2023-11-07T12:54:42.854Z,18.4
2023-11-07T13:00:48.702Z,18.4
2023-11-07T13:06:54.481Z,18.4
2023-11-07T13:13:00.801Z,18.4
2023-11-07T13:19:06.837Z,18.4
2023-11-07T13:25:12.564Z,18.4
2023-11-07T13:31:18.753Z,18.4
2023-11-07T13:37:24.414Z,18.4
2023-11-07T13:43:30.411Z,18.5
2023-11-07T13:49:39.008Z,18.5
2023-11-07T13:55:45.343Z,18.5
2023-11-07T14:01:51.537Z,18.5
2023-11-07T14:07:57.928Z,18.4
2023-11-07T14:14:04.127Z,18.4
2023-11-07T14:20:10.107Z,18.5
2023-11-07T14:26:16.642Z,18.5
2023-11-07T14:32:22.498Z,18.4
2023-11-07T14:38:28.275Z,18.4
2023-11-07T14:44:34.103Z,18.4
2023-11-07T14:50:40.555Z,18.5
2023-11-07T14:56:51.329Z,18.5
2023-11-07T15:03:09.254Z,18.5
2023-11-07T15:09:16.826Z,18.4
2023-11-07T15:15:22.807Z,18.4
2023-11-07T15:21:29.228Z,18.4
2023-11-07T15:27:34.995Z,18.4
2023-11-07T15:33:41.265Z,18.4
2023-11-07T15:39:48.175Z,18.4
2023-11-07T15:45:53.728Z,18.4
2023-11-07T15:51:59.709Z,18.4
2023-11-07T15:58:05.698Z,18.4
2023-11-07T16:04:11.988Z,18.4
2023-11-07T16:10:18.290Z,18.4
2023-11-07T16:16:24.679Z,18.4
2023-11-07T16:22:30.863Z,18.3
2023-11-07T16:28:36.855Z,18.4
2023-11-07T16:34:43.024Z,18.3
2023-11-07T16:40:48.811Z,18.4
2023-11-07T16:46:55.001Z,18.3
2023-11-07T16:53:01.390Z,18.3
2023-11-07T16:59:07.243Z,18.4
2023-11-07T17:05:13.258Z,18.3
2023-11-07T17:11:20.146Z,18.3
2023-11-07T17:17:26.215Z,18.4
2023-11-07T17:23:32.317Z,18.3
2023-11-07T17:29:38.499Z,18.3
2023-11-07T17:35:44.551Z,18.4
2023-11-07T17:41:50.333Z,18.4
2023-11-07T17:47:56.537Z,18.3
2023-11-07T17:54:01.892Z,18.3
2023-11-07T18:00:07.653Z,18.3
2023-11-07T18:06:13.694Z,18.3
2023-11-07T18:12:19.313Z,18.4
2023-11-07T18:18:25.081Z,18.4
2023-11-07T18:24:31.304Z,18.3
2023-11-07T18:30:36.816Z,18.4
2023-11-07T18:36:42.330Z,18.3
2023-11-07T18:42:48.276Z,18.3
2023-11-07T18:48:53.355Z,18.3
2023-11-07T18:54:58.853Z,18.3
2023-11-07T19:01:04.448Z,18.3
2023-11-07T19:07:10.363Z,18.3
2023-11-07T19:13:16.123Z,18.3
2023-11-07T19:19:21.517Z,18.3
2023-11-07T19:25:27.336Z,18.3
2023-11-07T19:31:32.529Z,18.3
2023-11-07T19:37:38.657Z,18.3
2023-11-07T19:43:45.872Z,18.3
2023-11-07T19:49:56.181Z,18.3
2023-11-07T19:56:01.750Z,18.3
2023-11-07T20:02:06.878Z,18.3
2023-11-07T20:08:12.487Z,18.3
2023-11-07T20:14:17.832Z,18.3
2023-11-07T20:20:23.455Z,18.3
2023-11-07T20:26:29.968Z,18.3
2023-11-07T20:32:37.603Z,18.3
2023-11-07T20:38:47.459Z,18.3
2023-11-07T20:45:00.427Z,18.3
2023-11-07T20:51:15.850Z,18.3
2023-11-07T20:57:21.816Z,18.3
2023-11-07T21:03:27.448Z,18.3
2023-11-07T21:09:33.161Z,18.3
2023-11-07T21:15:39.776Z,18.3
2023-11-07T21:22:01.261Z,18.3
2023-11-07T21:28:42.974Z,18.3
2023-11-07T21:34:50.763Z,18.3
2023-11-07T21:40:57.553Z,18.3
2023-11-07T21:47:05.233Z,18.3
2023-11-07T21:53:11.576Z,18.2
2023-11-07T21:59:20.868Z,18.1
2023-11-07T22:05:34.203Z,18
2023-11-07T22:11:44.890Z,17.9
2023-11-07T22:17:49.816Z,17.9
2023-11-07T22:24:10.412Z,18
2023-11-07T22:30:31.953Z,18
2023-11-07T22:37:20.345Z,18.1
2023-11-07T22:44:03.939Z,18.1
2023-11-07T22:50:16.497Z,18.1
2023-11-07T22:56:28.470Z,18
2023-11-07T23:02:45.531Z,18.1
2023-11-07T23:09:00.803Z,18.1
2023-11-07T23:15:08.896Z,18
2023-11-07T23:21:20.246Z,18
2023-11-07T23:27:28.678Z,18
2023-11-07T23:33:34.308Z,18
2023-11-07T23:39:39.669Z,18
2023-11-07T23:45:45.580Z,18
2023-11-07T23:51:51.188Z,17.9
2023-11-07T23:57:56.724Z,17.9
